Time;durP1;ratioP1;P1;durP2;ratioP2;P2;SDS_P1;SDS_P2;PMS_P1;PMS_P2;Temp;Humidity;BMP_temperature;BMP_pressure;BME280_temperature;BME280_humidity;BME280_pressure;Samples;Min_cycle;Max_cycle;Signal;HPM_P1;HPM_P2
2022/12/28 00:00:06;;;;;;;10.13;3.98;;;;;;;2.03;86.51;99981.02;1791528;80;21028;-79
2022/12/28 00:02:34;;;;;;;9.90;3.87;;;;;;;2.08;86.58;99983.30;1822567;78;21124;-78
2022/12/28 00:05:02;;;;;;;9.10;3.40;;;;;;;2.08;86.73;99981.52;1790960;80;21048;-78
2022/12/28 00:07:28;;;;;;;8.70;4.50;;;;;;;2.04;86.59;99990.55;1814942;78;21123;-77
2022/12/28 00:09:55;;;;;;;9.23;3.72;;;;;;;2.04;86.59;99990.55;1791876;80;20977;-75
2022/12/28 00:12:22;;;;;;;6.47;3.33;;;;;;;2.20;86.19;100001.27;1790690;79;21043;-75
2022/12/28 00:14:49;;;;;;;9.30;3.77;;;;;;;2.14;86.17;99998.14;1814246;78;21630;-77
2022/12/28 00:17:16;;;;;;;7.53;3.90;;;;;;;2.14;86.17;99998.14;1782301;79;21067;-75
2022/12/28 00:19:42;;;;;;;7.60;3.85;;;;;;;2.09;85.81;99995.00;1788277;80;21319;-74
2022/12/28 00:22:09;;;;;;;8.03;3.67;;;;;;;2.05;86.35;100003.16;1820348;78;21095;-75
2022/12/28 00:24:36;;;;;;;9.35;4.67;;;;;;;2.08;86.32;100005.58;1793002;78;20995;-77
2022/12/28 00:27:03;;;;;;;8.75;4.50;;;;;;;2.16;86.13;100006.73;1804934;79;21513;-75
2022/12/28 00:29:29;;;;;;;7.47;4.08;;;;;;;2.12;86.16;100001.31;1804742;79;21578;-75
2022/12/28 00:31:55;;;;;;;7.75;4.35;;;;;;;2.05;86.26;100004.02;1805090;79;22200;-77
2022/12/28 00:34:23;;;;;;;6.85;3.47;;;;;;;2.00;86.67;100004.80;1796399;78;21094;-76
2022/12/28 00:36:51;;;;;;;11.12;4.47;;;;;;;2.10;86.44;100005.83;1772153;81;21107;-79
2022/12/28 00:39:19;;;;;;;9.08;4.58;;;;;;;2.10;86.44;100005.83;1796407;78;21028;-78
2022/12/28 00:41:46;;;;;;;9.60;4.78;;;;;;;1.99;86.56;100009.70;1797537;79;21103;-77
2022/12/28 00:44:12;;;;;;;11.60;4.87;;;;;;;1.92;87.11;100014.98;1810034;78;21250;-79
2022/12/28 00:46:39;;;;;;;7.70;3.85;;;;;;;1.92;87.11;100014.98;1830473;78;20971;-77
2022/12/28 00:49:05;;;;;;;6.83;3.95;;;;;;;2.00;87.15;100019.70;1826046;78;21036;-75
2022/12/28 00:51:32;;;;;;;10.53;5.28;;;;;;;2.08;86.96;100023.93;1820301;78;20993;-80
2022/12/28 00:53:59;;;;;;;8.13;4.45;;;;;;;2.00;87.20;100021.02;1823078;78;21078;-77
2022/12/28 00:56:26;;;;;;;12.80;5.55;;;;;;;1.91;87.52;100028.57;1830935;78;21243;-76
2022/12/28 00:58:57;;;;;;;10.72;3.92;;;;;;;1.91;87.52;100028.57;1824311;77;20993;-79
2022/12/28 01:01:24;;;;;;;8.30;4.62;;;;;;;2.07;87.58;100033.58;1789866;80;21556;-78
2022/12/28 01:03:51;;;;;;;11.15;4.78;;;;;;;2.07;87.58;100033.58;1822722;78;21334;-77
2022/12/28 01:06:18;;;;;;;12.65;5.30;;;;;;;1.98;87.92;100034.69;1827242;78;21095;-75
2022/12/28 01:08:45;;;;;;;13.22;4.35;;;;;;;1.98;87.92;100034.69;1825026;78;21226;-77
2022/12/28 01:11:25;;;;;;;8.13;4.17;;;;;;;1.99;87.92;100036.35;1823167;78;20989;-72
2022/12/28 01:13:55;;;;;;;10.18;4.50;;;;;;;2.09;87.85;100023.00;1820609;78;21020;-74
2022/12/28 01:16:33;;;;;;;13.65;4.65;;;;;;;2.11;88.15;100023.25;1767752;79;21544;-74
2022/12/28 01:19:01;;;;;;;10.00;4.33;;;;;;;2.12;88.09;100030.15;1774999;80;21141;-73
2022/12/28 01:21:30;;;;;;;11.05;4.92;;;;;;;2.09;88.02;100024.31;1819119;77;21141;-74
2022/12/28 01:23:59;;;;;;;10.58;4.15;;;;;;;2.21;87.66;100025.23;1815261;77;21083;-74
2022/12/28 01:26:25;;;;;;;7.67;4.47;;;;;;;2.21;87.66;100025.23;1782667;79;21040;-75
2022/12/28 01:28:52;;;;;;;9.73;4.55;;;;;;;2.16;87.65;100028.16;1823025;77;21063;-73
2022/12/28 01:31:19;;;;;;;9.10;4.00;;;;;;;2.07;88.13;100032.75;1813002;77;21105;-74
2022/12/28 01:33:46;;;;;;;7.03;4.12;;;;;;;2.07;88.13;100032.75;1807299;77;21206;-75
2022/12/28 01:36:20;;;;;;;10.53;5.53;;;;;;;2.22;88.09;100039.55;1763568;79;21054;-75
2022/12/28 01:38:47;;;;;;;10.82;5.28;;;;;;;2.18;88.09;100035.92;1820154;78;21017;-74
2022/12/28 01:41:16;;;;;;;11.95;5.45;;;;;;;2.18;88.09;100035.92;1821367;78;21572;-74
2022/12/28 01:43:47;;;;;;;7.50;4.47;;;;;;;2.18;88.02;100035.44;1825341;77;21570;-74
2022/12/28 01:46:30;;;;;;;8.38;4.37;;;;;;;2.18;88.02;100035.44;1809981;78;21024;-73
2022/12/28 01:49:07;;;;;;;11.78;5.83;;;;;;;2.25;87.97;100041.11;1795846;78;21001;-73
2022/12/28 01:51:59;;;;;;;14.47;5.67;;;;;;;2.15;88.19;100038.29;1793718;79;21067;-72
2022/12/28 01:54:28;;;;;;;7.85;4.28;;;;;;;2.15;88.19;100038.29;1818283;78;21110;-73
2022/12/28 01:56:55;;;;;;;10.50;4.33;;;;;;;2.19;88.49;100037.61;1787737;78;21032;-75
2022/12/28 01:59:25;;;;;;;10.15;4.72;;;;;;;2.27;88.30;100037.42;1796341;78;21125;-75
2022/12/28 02:01:51;;;;;;;10.75;5.25;;;;;;;2.28;88.41;100034.32;1821257;78;21036;-73
2022/12/28 02:04:18;;;;;;;11.95;5.12;;;;;;;2.25;88.45;100026.20;1797241;78;21106;-74
2022/12/28 02:06:45;;;;;;;9.03;5.08;;;;;;;2.25;88.45;100026.20;1814590;78;21021;-76
2022/12/28 02:09:22;;;;;;;8.90;4.62;;;;;;;2.39;88.21;100033.58;1813610;78;21579;-75
2022/12/28 02:11:51;;;;;;;11.15;4.97;;;;;;;2.43;88.18;100040.27;1769092;78;22048;-74
2022/12/28 02:14:17;;;;;;;11.20;4.83;;;;;;;2.40;88.30;100038.72;1782350;78;21036;-74
2022/12/28 02:16:44;;;;;;;10.08;4.40;;;;;;;2.37;88.26;100037.61;1798128;78;21532;-74
2022/12/28 02:19:13;;;;;;;10.32;4.50;;;;;;;2.35;88.21;100043.44;1820530;78;21170;-73
2022/12/28 02:21:53;;;;;;;7.92;4.20;;;;;;;2.48;88.06;100039.48;1823277;78;21012;-74
2022/12/28 02:24:57;;;;;;;10.10;4.80;;;;;;;2.49;87.80;100048.56;1807501;78;21335;-74
2022/12/28 02:27:55;;;;;;;12.93;5.12;;;;;;;2.42;87.74;100042.06;1791788;78;21573;-75
2022/12/28 02:30:23;;;;;;;9.03;4.87;;;;;;;2.34;88.07;100049.64;1792073;78;21083;-76
2022/12/28 02:33:02;;;;;;;8.43;4.17;;;;;;;2.46;87.93;100042.69;1831952;78;21468;-76
2022/12/28 02:36:00;;;;;;;7.50;5.12;;;;;;;2.46;87.93;100042.69;1804388;78;21029;-74
2022/12/28 02:38:35;;;;;;;9.60;5.53;;;;;;;2.40;88.06;100040.03;1816195;78;21081;-74
2022/12/28 02:41:08;;;;;;;11.00;5.45;;;;;;;2.35;88.00;100050.82;1811688;78;21069;-75
2022/12/28 02:43:35;;;;;;;7.50;4.67;;;;;;;2.36;88.20;100052.99;1771446;78;21686;-73
2022/12/28 02:52:36;;;;;;;8.10;5.47;;;;;;;2.35;88.08;100059.17;1811441;78;21796;-73
2022/12/28 02:58:37;;;;;;;11.57;4.47;;;;;;;2.41;88.29;100057.42;1793552;78;20998;-73
2022/12/28 03:01:38;;;;;;;10.80;5.50;;;;;;;2.39;88.24;100066.35;1817169;78;21079;-78
2022/12/28 03:04:19;;;;;;;7.20;5.35;;;;;;;2.39;88.24;100066.35;1784678;79;21049;-76
2022/12/28 03:10:20;;;;;;;9.65;4.28;;;;;;;2.31;88.13;100066.89;1784094;78;21158;-72
2022/12/28 03:12:55;;;;;;;8.03;5.03;;;;;;;2.45;88.17;100075.92;1831230;78;21060;-73
2022/12/28 03:15:29;;;;;;;7.58;5.30;;;;;;;2.40;88.09;100071.98;1816872;78;21057;-73
2022/12/28 03:32:04;;;;;;;8.43;4.85;;;;;;;2.26;88.57;100076.40;1807589;78;21044;-72
2022/12/28 03:34:31;;;;;;;12.18;4.62;;;;;;;2.34;88.68;100074.07;1789407;79;21140;-74
2022/12/28 03:37:24;;;;;;;6.90;4.33;;;;;;;2.47;88.28;100074.52;1802848;78;21635;-74
2022/12/28 03:40:22;;;;;;;9.55;4.75;;;;;;;2.41;88.11;100077.09;1805749;78;21012;-74
2022/12/28 03:46:01;;;;;;;8.88;4.58;;;;;;;2.36;88.19;100080.05;1824504;78;21539;-74
2022/12/28 03:48:28;;;;;;;10.40;4.65;;;;;;;2.42;88.24;100081.41;1822503;78;26792;-71
2022/12/28 03:50:55;;;;;;;7.05;4.95;;;;;;;2.51;88.12;100089.94;1744043;79;21029;-76
2022/12/28 03:53:43;;;;;;;6.87;4.85;;;;;;;2.43;87.94;100089.62;1805353;78;21037;-75
2022/12/28 03:56:16;;;;;;;5.33;4.33;;;;;;;2.43;87.94;100089.62;1827685;78;21072;-79
2022/12/28 03:58:44;;;;;;;7.30;4.35;;;;;;;2.45;87.64;100093.45;1820741;78;21031;-75
2022/12/28 04:01:12;;;;;;;8.93;5.15;;;;;;;2.47;87.40;100092.88;1827582;78;21005;-73
2022/12/28 04:03:39;;;;;;;8.28;4.72;;;;;;;2.39;87.57;100096.51;1809329;78;21041;-75
2022/12/28 04:06:06;;;;;;;8.75;5.90;;;;;;;2.29;87.85;100104.17;1776620;79;21033;-74
2022/12/28 04:08:34;;;;;;;7.37;4.53;;;;;;;2.24;87.70;100106.27;1768819;81;21083;-73
2022/12/28 04:11:02;;;;;;;11.43;5.40;;;;;;;2.29;87.61;100100.24;1801603;78;21055;-74
2022/12/28 04:13:30;;;;;;;10.03;4.90;;;;;;;2.32;87.67;100103.98;1827140;78;21471;-74
2022/12/28 04:16:02;;;;;;;8.78;5.55;;;;;;;2.29;87.79;100093.69;1830595;78;21540;-73
2022/12/28 04:18:32;;;;;;;9.10;5.05;;;;;;;2.25;87.94;100104.86;1827522;78;21044;-74
2022/12/28 04:20:59;;;;;;;8.50;4.95;;;;;;;2.25;88.06;100106.16;1787791;79;22044;-74
2022/12/28 04:23:27;;;;;;;7.42;4.05;;;;;;;2.34;87.58;100105.53;1799493;79;20998;-73
2022/12/28 04:26:05;;;;;;;6.42;4.62;;;;;;;2.39;87.47;100109.14;1799059;78;21418;-71
2022/12/28 04:28:32;;;;;;;9.35;5.65;;;;;;;2.35;87.86;100115.06;1800776;79;21015;-74
2022/12/28 04:31:01;;;;;;;8.88;5.10;;;;;;;2.31;88.08;100114.91;1800423;78;21515;-72
2022/12/28 04:33:30;;;;;;;9.98;4.92;;;;;;;2.30;88.10;100117.66;1769916;78;21041;-71
2022/12/28 04:36:10;;;;;;;6.60;4.10;;;;;;;2.34;88.10;100116.02;1802504;78;21496;-72
2022/12/28 04:38:37;;;;;;;6.83;4.58;;;;;;;2.48;87.74;100116.85;1768475;81;21089;-73
2022/12/28 04:41:04;;;;;;;10.07;4.60;;;;;;;2.49;88.20;100123.31;1796266;78;21036;-74
2022/12/28 04:43:30;;;;;;;7.70;4.95;;;;;;;2.49;88.18;100124.62;1817581;78;20978;-73
2022/12/28 04:45:58;;;;;;;7.40;5.25;;;;;;;2.46;88.41;100127.44;1805608;78;21243;-74
2022/12/28 04:48:25;;;;;;;7.47;4.25;;;;;;;2.43;88.26;100127.64;1808914;78;21055;-74
2022/12/28 04:50:52;;;;;;;10.80;5.60;;;;;;;2.51;88.24;100124.48;1807390;78;21896;-73
2022/12/28 04:53:20;;;;;;;8.18;5.37;;;;;;;2.44;88.78;100130.64;1814137;78;21061;-72
2022/12/28 04:55:47;;;;;;;8.28;5.40;;;;;;;2.44;88.78;100130.64;1813525;78;20992;-73
2022/12/28 04:58:15;;;;;;;7.30;5.17;;;;;;;2.28;88.89;100136.12;1803928;78;21040;-71
2022/12/28 05:00:42;;;;;;;8.25;5.03;;;;;;;2.28;88.89;100136.12;1822777;78;21041;-72
2022/12/28 05:03:08;;;;;;;6.95;4.45;;;;;;;2.28;89.39;100141.81;1830360;78;21238;-70
2022/12/28 05:05:35;;;;;;;11.10;5.40;;;;;;;2.28;89.39;100141.81;1824184;78;21361;-73
2022/12/28 05:08:04;;;;;;;9.10;5.67;;;;;;;2.22;89.34;100145.72;1795509;79;21056;-73
2022/12/28 05:10:31;;;;;;;7.45;4.20;;;;;;;2.13;89.56;100144.55;1800602;79;21521;-73
2022/12/28 05:12:58;;;;;;;7.72;4.62;;;;;;;2.18;89.63;100142.08;1800491;79;21022;-74
2022/12/28 05:15:25;;;;;;;7.55;5.35;;;;;;;2.18;90.06;100147.33;1793738;78;22161;-75
2022/12/28 05:17:53;;;;;;;11.73;5.65;;;;;;;2.11;90.44;100143.81;1826058;78;21071;-75
2022/12/28 05:20:19;;;;;;;7.55;5.40;;;;;;;2.11;90.44;100143.81;1789675;78;21027;-78
2022/12/28 05:22:46;;;;;;;9.78;5.12;;;;;;;2.12;90.41;100148.09;1818358;78;21079;-73
2022/12/28 05:25:13;;;;;;;11.15;5.72;;;;;;;2.23;90.18;100150.48;1831221;78;21056;-74
2022/12/28 05:27:40;;;;;;;8.38;5.70;;;;;;;2.24;90.35;100162.18;1815447;78;21548;-74
2022/12/28 05:30:08;;;;;;;10.38;6.10;;;;;;;2.10;90.37;100160.95;1815733;78;21076;-73
2022/12/28 05:32:35;;;;;;;12.95;6.12;;;;;;;2.10;90.37;100160.95;1810937;78;21038;-76
2022/12/28 05:35:01;;;;;;;9.55;5.72;;;;;;;2.12;90.15;100170.38;1829708;78;21089;-74
2022/12/28 05:37:28;;;;;;;7.58;5.12;;;;;;;2.21;90.17;100177.27;1830200;78;21023;-74
2022/12/28 05:39:55;;;;;;;9.85;6.22;;;;;;;2.20;90.24;100184.75;1812702;78;21156;-75
2022/12/28 05:42:21;;;;;;;12.18;6.33;;;;;;;2.16;90.42;100182.80;1817671;78;21564;-74
2022/12/28 05:44:48;;;;;;;10.30;6.97;;;;;;;2.12;90.74;100195.27;1810998;78;21048;-73
2022/12/28 05:47:15;;;;;;;7.70;4.70;;;;;;;2.16;90.40;100200.71;1834071;78;21278;-74
2022/12/28 05:49:41;;;;;;;10.78;5.53;;;;;;;2.26;89.95;100198.30;1807299;77;21023;-73
2022/12/28 05:52:08;;;;;;;8.80;5.37;;;;;;;2.28;90.21;100202.11;1794314;79;21242;-71
2022/12/28 05:54:34;;;;;;;10.72;6.53;;;;;;;2.28;90.42;100213.91;1803656;79;21312;-75
2022/12/28 05:57:01;;;;;;;7.60;5.72;;;;;;;2.28;90.66;100212.59;1813065;79;21029;-73
2022/12/28 05:59:27;;;;;;;7.28;4.72;;;;;;;2.28;90.66;100212.59;1806960;79;21087;-72
2022/12/28 06:01:54;;;;;;;8.08;5.37;;;;;;;2.44;89.51;100218.50;1815217;77;20993;-72
2022/12/28 06:04:20;;;;;;;8.63;5.65;;;;;;;2.46;89.50;100221.02;1811302;78;21186;-72
2022/12/28 06:06:47;;;;;;;8.98;5.50;;;;;;;2.46;89.50;100221.02;1787169;78;21008;-73
2022/12/28 06:09:14;;;;;;;8.20;5.65;;;;;;;2.41;89.22;100225.25;1808842;79;21080;-69
2022/12/28 06:11:41;;;;;;;9.20;5.97;;;;;;;2.31;88.74;100228.13;1807149;79;21262;-70
2022/12/28 06:14:07;;;;;;;9.60;4.78;;;;;;;2.36;88.49;100229.98;1797764;78;21025;-71
2022/12/28 06:16:38;;;;;;;7.53;5.25;;;;;;;2.31;88.56;100228.97;1796025;79;21127;-71
2022/12/28 06:19:06;;;;;;;8.43;5.62;;;;;;;2.20;88.90;100238.02;1811663;79;21052;-69
2022/12/28 06:21:34;;;;;;;14.15;5.58;;;;;;;2.13;88.43;100243.32;1791552;79;21049;-69
2022/12/28 06:24:01;;;;;;;9.00;4.53;;;;;;;2.13;88.43;100243.32;1795085;79;21037;-70
2022/12/28 06:26:29;;;;;;;9.20;4.92;;;;;;;2.15;88.24;100240.95;1800863;78;21055;-71
2022/12/28 06:28:56;;;;;;;10.00;6.20;;;;;;;2.15;88.24;100240.95;1820435;78;21245;-71
2022/12/28 06:31:26;;;;;;;8.05;5.30;;;;;;;2.06;88.46;100259.91;1812636;78;21638;-74
2022/12/28 06:33:56;;;;;;;10.03;5.70;;;;;;;2.06;88.46;100259.91;1798396;78;21531;-71
2022/12/28 06:36:25;;;;;;;9.63;5.30;;;;;;;2.05;88.37;100262.17;1769203;81;21037;-73
2022/12/28 06:38:53;;;;;;;6.22;4.25;;;;;;;2.05;88.37;100262.17;1777303;79;21057;-73
2022/12/28 06:41:20;;;;;;;13.62;5.17;;;;;;;2.15;88.12;100271.58;1769113;81;21145;-71
2022/12/28 06:43:47;;;;;;;11.97;6.25;;;;;;;2.15;88.12;100271.58;1793311;77;20965;-72
2022/12/28 06:46:16;;;;;;;7.20;4.50;;;;;;;2.13;88.54;100271.67;1809513;78;21031;-72
2022/12/28 06:48:43;;;;;;;7.20;4.53;;;;;;;2.15;88.49;100278.96;1796042;77;21022;-73
2022/12/28 06:51:14;;;;;;;6.83;4.55;;;;;;;2.16;87.74;100279.80;1794959;78;22010;-70
2022/12/28 06:53:41;;;;;;;10.48;4.78;;;;;;;2.29;87.73;100283.29;1818025;78;21149;-69
2022/12/28 06:56:13;;;;;;;10.05;5.90;;;;;;;2.34;87.28;100282.52;1817157;77;21583;-69
2022/12/28 06:58:39;;;;;;;7.72;4.35;;;;;;;2.29;87.26;100287.22;1814342;78;20996;-69
2022/12/28 07:01:10;;;;;;;11.65;4.25;;;;;;;2.26;85.59;100297.06;1813134;78;20998;-70
2022/12/28 07:03:37;;;;;;;7.72;4.40;;;;;;;2.25;85.65;100288.37;1820300;78;21027;-70
2022/12/28 07:06:04;;;;;;;7.92;4.75;;;;;;;2.34;85.98;100293.49;1818359;78;21172;-69
2022/12/28 07:08:31;;;;;;;7.90;4.53;;;;;;;2.34;86.07;100289.56;1808577;77;21039;-72
2022/12/28 07:11:03;;;;;;;8.00;5.10;;;;;;;2.35;86.14;100296.47;1814481;77;21013;-70
2022/12/28 07:13:30;;;;;;;7.60;4.73;;;;;;;2.31;86.10;100291.89;1804293;77;21041;-74
2022/12/28 07:15:56;;;;;;;6.33;4.75;;;;;;;2.45;86.38;100298.00;1819467;78;21449;-75
2022/12/28 07:18:23;;;;;;;12.63;5.58;;;;;;;2.53;85.65;100290.45;1818455;78;21157;-75
2022/12/28 07:20:50;;;;;;;9.50;6.35;;;;;;;2.50;85.51;100296.76;1815245;79;21032;-75
2022/12/28 07:23:16;;;;;;;10.20;5.85;;;;;;;2.42;85.37;100304.30;1815290;79;20980;-75
2022/12/28 07:25:43;;;;;;;9.70;5.55;;;;;;;2.35;85.71;100299.09;1815416;79;21047;-76
2022/12/28 07:28:09;;;;;;;7.53;4.58;;;;;;;2.40;85.95;100301.42;1815361;77;21535;-75
2022/12/28 07:30:36;;;;;;;9.58;5.42;;;;;;;2.54;85.73;100295.61;1815193;78;21066;-74
2022/12/28 07:33:03;;;;;;;9.80;5.58;;;;;;;2.56;85.29;100302.90;1823196;78;21103;-72
2022/12/28 07:35:30;;;;;;;10.45;5.40;;;;;;;2.55;85.49;100305.65;1807426;77;20965;-72
2022/12/28 07:37:56;;;;;;;9.20;5.30;;;;;;;2.52;85.39;100307.16;1814117;77;21439;-72
2022/12/28 07:40:23;;;;;;;8.83;4.78;;;;;;;2.51;85.43;100309.39;1819946;77;21009;-72
2022/12/28 07:42:50;;;;;;;13.38;6.08;;;;;;;2.65;85.14;100311.95;1819465;77;21186;-72
2022/12/28 07:45:16;;;;;;;16.05;5.90;;;;;;;2.74;84.89;100315.72;1816844;77;21084;-72
2022/12/28 07:47:42;;;;;;;18.48;5.83;;;;;;;2.71;85.05;100313.32;1818199;78;21005;-71
2022/12/28 07:50:09;;;;;;;12.63;5.22;;;;;;;2.64;84.15;100317.29;1811055;77;21001;-72
2022/12/28 07:52:36;;;;;;;13.00;6.20;;;;;;;2.51;84.27;100315.50;1799339;77;21028;-73
2022/12/28 07:55:03;;;;;;;9.73;5.65;;;;;;;2.45;84.74;100328.99;1795010;79;21790;-72
2022/12/28 07:57:33;;;;;;;7.37;4.45;;;;;;;2.55;84.02;100330.09;1830438;77;21015;-70
2022/12/28 07:59:59;;;;;;;8.43;5.53;;;;;;;2.55;84.02;100330.09;1832879;77;21095;-73
2022/12/28 08:02:26;;;;;;;12.03;6.05;;;;;;;2.55;84.11;100336.64;1825693;77;21523;-72
2022/12/28 08:04:54;;;;;;;12.65;5.95;;;;;;;2.55;84.52;100327.94;1822028;78;21087;-72
2022/12/28 08:07:20;;;;;;;9.63;5.95;;;;;;;2.50;84.20;100321.67;1785764;78;21122;-70
2022/12/28 08:09:47;;;;;;;12.28;5.55;;;;;;;2.51;84.25;100333.86;1790658;80;21044;-71
2022/12/28 08:12:13;;;;;;;9.30;5.75;;;;;;;2.61;84.02;100329.29;1823300;78;21024;-72
2022/12/28 08:14:40;;;;;;;11.50;6.22;;;;;;;2.72;83.92;100330.72;1792188;79;21021;-71
2022/12/28 08:17:06;;;;;;;10.65;6.30;;;;;;;2.72;84.19;100331.59;1790077;78;21044;-72
2022/12/28 08:19:33;;;;;;;9.70;6.03;;;;;;;2.74;84.33;100328.84;1769638;78;21136;-71
2022/12/28 08:22:00;;;;;;;16.50;5.70;;;;;;;2.76;84.34;100336.13;1798840;78;22207;-71
2022/12/28 08:24:27;;;;;;;11.40;6.00;;;;;;;2.76;83.72;100333.50;1803905;78;21116;-70
2022/12/28 08:26:53;;;;;;;10.88;4.95;;;;;;;2.97;83.16;100344.34;1798295;78;21063;-68
2022/12/28 08:29:20;;;;;;;10.40;5.12;;;;;;;2.97;83.16;100344.34;1781633;79;21045;-68
2022/12/28 08:31:47;;;;;;;14.05;5.80;;;;;;;3.02;83.02;100343.56;1801702;78;21005;-68
2022/12/28 08:34:21;;;;;;;9.80;5.80;;;;;;;3.04;82.74;100344.30;1799925;78;21024;-67
2022/12/28 08:36:48;;;;;;;9.20;5.92;;;;;;;3.04;82.04;100342.15;1800753;79;21556;-65
2022/12/28 08:39:15;;;;;;;8.80;5.20;;;;;;;3.01;82.41;100344.97;1808524;78;21027;-66
2022/12/28 08:41:42;;;;;;;11.57;5.35;;;;;;;2.99;81.40;100349.48;1797638;79;21025;-67
2022/12/28 08:44:08;;;;;;;9.57;5.00;;;;;;;3.12;81.52;100351.16;1817135;78;21085;-66
2022/12/28 08:46:35;;;;;;;8.00;5.22;;;;;;;3.24;82.08;100351.27;1800332;79;21112;-67
2022/12/28 08:49:02;;;;;;;11.60;5.65;;;;;;;3.31;81.94;100351.22;1800378;79;21073;-69
2022/12/28 08:51:33;;;;;;;9.35;5.22;;;;;;;3.41;81.66;100355.36;1800542;79;20981;-67
2022/12/28 08:54:00;;;;;;;9.50;4.72;;;;;;;3.52;82.17;100352.34;1798638;78;21005;-68
2022/12/28 08:56:30;;;;;;;11.22;5.42;;;;;;;3.62;78.83;100354.33;1798075;78;21521;-66
2022/12/28 08:58:57;;;;;;;12.75;5.80;;;;;;;3.73;79.42;100347.36;1797560;79;21056;-66
2022/12/28 09:01:29;;;;;;;7.80;5.08;;;;;;;3.93;80.28;100345.09;1787514;78;21011;-67
2022/12/28 09:03:58;;;;;;;10.68;5.33;;;;;;;4.13;80.34;100351.52;1800711;79;21633;-67
2022/12/28 09:06:28;;;;;;;10.90;5.05;;;;;;;4.22;77.17;100347.39;1800630;79;21072;-66
2022/12/28 09:08:56;;;;;;;9.55;5.28;;;;;;;4.28;76.16;100350.89;1800643;78;21845;-66
2022/12/28 09:11:22;;;;;;;11.25;5.90;;;;;;;4.48;75.92;100354.21;1799757;78;21053;-67
2022/12/28 09:13:49;;;;;;;11.05;5.12;;;;;;;4.60;75.69;100351.14;1799739;79;21049;-67
2022/12/28 09:16:24;;;;;;;9.33;4.87;;;;;;;4.75;75.06;100355.70;1800189;78;21537;-67
2022/12/28 09:18:56;;;;;;;10.05;4.78;;;;;;;4.98;73.92;100351.33;1799378;79;20994;-67
2022/12/28 09:21:25;;;;;;;10.28;5.08;;;;;;;5.12;73.67;100348.98;1780099;79;21147;-67
2022/12/28 09:23:51;;;;;;;8.80;4.70;;;;;;;4.99;70.89;100352.19;1800253;79;21001;-69
2022/12/28 09:26:23;;;;;;;8.70;4.80;;;;;;;4.78;71.33;100362.06;1799997;78;21037;-68
2022/12/28 09:28:58;;;;;;;8.53;4.40;;;;;;;4.67;71.92;100368.61;1802925;78;21032;-67
2022/12/28 09:31:27;;;;;;;10.23;5.37;;;;;;;4.58;71.65;100364.03;1807761;78;20997;-68
2022/12/28 09:34:04;;;;;;;10.28;4.55;;;;;;;4.51;71.69;100355.77;1803998;79;21202;-68
2022/12/28 09:36:39;;;;;;;10.25;4.45;;;;;;;4.50;72.44;100361.97;1803525;78;20997;-67
2022/12/28 09:39:12;;;;;;;13.95;5.22;;;;;;;4.59;72.42;100359.97;1803977;79;21076;-68
2022/12/28 09:41:57;;;;;;;8.78;5.05;;;;;;;4.80;72.51;100366.73;1804077;79;21534;-68
2022/12/28 09:44:50;;;;;;;19.95;5.83;;;;;;;4.85;70.87;100364.61;1803993;79;21193;-69
2022/12/28 09:47:46;;;;;;;9.40;5.23;;;;;;;4.71;70.88;100369.59;1803578;78;21110;-68
2022/12/28 09:50:28;;;;;;;13.08;4.67;;;;;;;4.54;70.90;100366.08;1803222;79;21486;-68
2022/12/28 09:53:14;;;;;;;8.63;4.22;;;;;;;4.49;70.37;100372.97;1804268;78;20993;-69
2022/12/28 09:56:17;;;;;;;13.50;4.50;;;;;;;4.44;69.46;100372.95;1789594;79;21035;-69
2022/12/28 09:58:43;;;;;;;10.45;5.03;;;;;;;4.35;69.86;100357.38;1777394;79;21174;-68
2022/12/28 10:01:12;;;;;;;9.93;4.75;;;;;;;4.43;69.94;100370.80;1804099;79;21293;-69
2022/12/28 10:03:40;;;;;;;9.30;4.80;;;;;;;4.47;69.50;100371.42;1809915;78;21001;-70
2022/12/28 10:06:16;;;;;;;9.73;4.05;;;;;;;4.48;69.01;100381.84;1803923;79;20986;-69
2022/12/28 10:08:47;;;;;;;7.58;3.83;;;;;;;4.44;69.16;100383.02;1804088;78;21104;-69
2022/12/28 10:11:28;;;;;;;9.15;4.58;;;;;;;4.49;68.63;100376.92;1804615;79;21001;-68
2022/12/28 10:14:01;;;;;;;8.23;3.65;;;;;;;4.57;68.22;100375.52;1804184;79;21226;-69
2022/12/28 10:16:31;;;;;;;6.58;3.62;;;;;;;4.76;68.17;100371.88;1804270;79;20997;-69
2022/12/28 10:18:58;;;;;;;15.20;4.00;;;;;;;5.13;68.23;100374.34;1804236;78;21022;-70
2022/12/28 10:21:27;;;;;;;9.10;3.70;;;;;;;5.59;68.01;100368.63;1777288;79;21422;-69
2022/12/28 10:23:55;;;;;;;8.75;3.37;;;;;;;6.26;66.67;100372.49;1799513;78;20997;-69
2022/12/28 10:26:21;;;;;;;9.93;3.42;;;;;;;6.99;65.44;100376.61;1804357;79;22100;-69
2022/12/28 10:28:57;;;;;;;6.67;3.67;;;;;;;7.89;64.02;100371.08;1804255;78;21029;-69
2022/12/28 10:31:35;;;;;;;7.33;3.92;;;;;;;8.46;58.86;100369.53;1804230;79;21020;-69
2022/12/28 10:34:19;;;;;;;7.83;5.00;;;;;;;8.37;58.35;100369.00;1802355;78;21060;-70
2022/12/28 10:36:46;;;;;;;8.33;3.40;;;;;;;8.04;56.53;100368.41;1817488;78;21122;-69
2022/12/28 10:39:25;;;;;;;6.95;2.80;;;;;;;7.76;57.68;100374.45;1772767;81;21814;-69
2022/12/28 10:41:52;;;;;;;6.72;2.90;;;;;;;7.60;56.36;100369.67;1772829;81;21521;-69
2022/12/28 10:44:33;;;;;;;6.92;2.80;;;;;;;7.64;58.29;100374.55;1772388;81;21124;-68
2022/12/28 10:47:06;;;;;;;6.58;2.80;;;;;;;7.96;56.33;100377.52;1793513;79;21068;-69
2022/12/28 10:49:35;;;;;;;4.33;2.42;;;;;;;8.06;55.68;100373.07;1804962;79;20990;-68
2022/12/28 10:52:16;;;;;;;5.75;2.80;;;;;;;7.79;55.01;100379.48;1804180;79;21151;-68
2022/12/28 10:54:42;;;;;;;4.35;2.22;;;;;;;7.47;55.24;100390.58;1803187;78;20994;-68
2022/12/28 10:57:29;;;;;;;6.65;2.80;;;;;;;7.82;54.50;100388.45;1804255;79;21036;-69
2022/12/28 11:00:15;;;;;;;5.08;2.77;;;;;;;8.62;55.27;100382.21;1804447;79;21083;-69
2022/12/28 11:02:42;;;;;;;7.65;2.98;;;;;;;9.88;54.12;100382.02;1804423;78;21124;-67
2022/12/28 11:05:20;;;;;;;5.75;2.90;;;;;;;10.70;49.13;100382.86;1804384;78;21151;-69
2022/12/28 11:07:47;;;;;;;14.07;4.15;;;;;;;10.42;48.65;100385.11;1803796;78;21057;-69
2022/12/28 11:10:23;;;;;;;11.45;3.33;;;;;;;9.68;50.42;100382.58;1804288;78;21142;-68
2022/12/28 11:12:53;;;;;;;3.77;2.52;;;;;;;9.09;50.97;100387.25;1804009;79;20989;-67
2022/12/28 11:15:25;;;;;;;12.10;3.98;;;;;;;8.61;51.62;100388.47;1804254;79;21024;-68
2022/12/28 11:17:57;;;;;;;6.00;3.17;;;;;;;8.06;52.23;100384.98;1802251;79;21268;-69
2022/12/28 11:20:35;;;;;;;9.05;3.27;;;;;;;7.54;53.68;100385.58;1801871;78;21516;-68
2022/12/28 11:23:07;;;;;;;10.63;3.80;;;;;;;7.09;54.05;100392.03;1799586;79;21012;-69
2022/12/28 11:25:35;;;;;;;7.10;2.92;;;;;;;6.64;54.41;100385.65;1800636;79;21103;-67
2022/12/28 11:28:16;;;;;;;8.05;3.10;;;;;;;6.20;55.41;100397.20;1784851;79;21069;-68
2022/12/28 11:30:43;;;;;;;11.88;3.98;;;;;;;5.80;56.61;100405.65;1817687;78;21342;-68
2022/12/28 11:33:34;;;;;;;6.85;3.47;;;;;;;5.40;57.57;100403.48;1818524;78;20994;-68
2022/12/28 11:36:01;;;;;;;6.95;3.22;;;;;;;5.11;58.39;100413.13;1812380;78;21002;-67
2022/12/28 11:38:40;;;;;;;8.78;3.47;;;;;;;4.88;59.31;100399.90;1818395;79;21033;-68
2022/12/28 11:43:50;;;;;;;7.30;3.70;;;;;;;4.65;60.80;100408.68;1870296;76;27426;-67
2022/12/28 11:46:26;;;;;;;8.00;4.17;;;;;;;4.52;60.67;100414.86;1801062;78;21027;-67
2022/12/28 11:49:19;;;;;;;11.40;4.97;;;;;;;4.39;61.13;100410.61;1814815;78;21136;-68
2022/12/28 11:51:46;;;;;;;8.58;3.25;;;;;;;4.28;61.13;100412.21;1826506;78;20937;-67
2022/12/28 11:54:35;;;;;;;9.05;3.55;;;;;;;4.18;61.50;100420.90;1826423;78;20949;-68
2022/12/28 11:57:02;;;;;;;10.70;4.00;;;;;;;4.08;61.98;100420.23;1826526;78;21017;-68
2022/12/28 11:59:33;;;;;;;5.83;3.40;;;;;;;4.04;62.32;100419.27;1805873;78;21509;-68
2022/12/28 12:02:29;;;;;;;7.87;4.25;;;;;;;4.05;62.74;100422.23;1817927;78;20977;-68
2022/12/28 12:04:55;;;;;;;9.60;4.42;;;;;;;4.12;63.30;100426.95;1773176;79;21195;-68
2022/12/28 12:07:26;;;;;;;9.43;3.58;;;;;;;4.23;63.18;100426.19;1793847;80;21057;-68
2022/12/28 12:10:22;;;;;;;12.10;4.87;;;;;;;4.29;62.99;100423.59;1812885;78;20997;-67
2022/12/28 12:12:50;;;;;;;7.97;3.67;;;;;;;4.23;63.06;100422.25;1806778;78;20994;-68
2022/12/28 12:15:20;;;;;;;9.30;4.35;;;;;;;4.13;63.37;100428.64;1789974;80;21185;-68
2022/12/28 12:18:03;;;;;;;9.83;4.08;;;;;;;4.08;64.09;100430.75;1772750;81;21054;-68
2022/12/28 12:20:47;;;;;;;8.63;4.23;;;;;;;4.07;64.18;100435.63;1771327;81;21077;-68